createdAt,value
2022-12-24T00:01:25.354Z,23.10
2022-12-24T00:03:53.615Z,25.13
2022-12-24T00:06:23.241Z,21.13
2022-12-24T00:08:53.752Z,30.23
2022-12-24T00:11:22.388Z,25.03
2022-12-24T00:13:51.016Z,26.60
2022-12-24T00:16:19.198Z,23.63
2022-12-24T00:18:47.429Z,24.50
2022-12-24T00:21:16.511Z,20.90
2022-12-24T00:23:44.846Z,21.87
2022-12-24T00:26:15.453Z,32.70
2022-12-24T00:28:43.824Z,31.70
2022-12-24T00:31:13.842Z,34.80
2022-12-24T00:33:43.003Z,27.13
2022-12-24T00:36:11.188Z,29.60
2022-12-24T00:38:40.111Z,36.80
2022-12-24T00:41:25.204Z,40.50
2022-12-24T00:43:56.850Z,39.87
2022-12-24T00:46:25.770Z,46.87
2022-12-24T00:48:54.530Z,43.13
2022-12-24T00:51:23.248Z,56.27
2022-12-24T00:53:52.427Z,63.10
2022-12-24T00:56:20.958Z,67.03
2022-12-24T00:58:49.427Z,66.10
2022-12-24T01:01:19.342Z,58.43
2022-12-24T01:03:47.764Z,58.67
2022-12-24T01:06:17.267Z,54.23
2022-12-24T01:08:45.739Z,58.33
2022-12-24T01:11:15.171Z,58.70
2022-12-24T01:13:43.372Z,66.67
2022-12-24T01:16:17.784Z,65.03
2022-12-24T01:18:47.921Z,71.93
2022-12-24T01:21:16.468Z,61.70
2022-12-24T01:23:45.024Z,54.10
2022-12-24T01:26:13.527Z,55.30
2022-12-24T01:28:42.418Z,47.53
2022-12-24T01:31:15.195Z,41.90
2022-12-24T01:33:43.641Z,48.40
2022-12-24T01:36:14.063Z,45.57
2022-12-24T01:38:42.457Z,52.30
2022-12-24T01:41:35.342Z,46.13
2022-12-24T01:44:33.219Z,42.20
2022-12-24T01:47:10.468Z,37.00
2022-12-24T01:49:40.806Z,35.57
2022-12-24T01:52:15.643Z,37.77
2022-12-24T01:54:47.383Z,28.33
2022-12-24T01:57:19.471Z,30.40
2022-12-24T01:59:52.416Z,30.60
2022-12-24T02:02:21.584Z,38.33
2022-12-24T02:04:56.115Z,29.70
2022-12-24T02:07:26.196Z,26.03
2022-12-24T02:09:57.930Z,26.80
2022-12-24T02:12:26.854Z,24.27
2022-12-24T02:14:56.024Z,32.90
2022-12-24T02:17:30.726Z,27.83
2022-12-24T02:20:29.853Z,39.20
2022-12-24T02:23:31.144Z,43.03
2022-12-24T02:26:15.290Z,46.77
2022-12-24T02:28:55.033Z,38.87
2022-12-24T02:31:29.060Z,35.60
2022-12-24T02:34:05.511Z,33.47
2022-12-24T02:36:37.708Z,38.27
2022-12-24T02:39:10.038Z,37.17
2022-12-24T02:41:56.167Z,32.50
2022-12-24T02:44:29.844Z,35.27
2022-12-24T02:47:01.966Z,32.20
2022-12-24T02:49:30.083Z,34.57
2022-12-24T02:51:58.211Z,36.03
2022-12-24T02:54:26.381Z,32.50
2022-12-24T02:57:10.143Z,31.33
2022-12-24T03:00:00.287Z,26.00
2022-12-24T03:02:42.949Z,27.40
2022-12-24T03:05:21.349Z,28.57
2022-12-24T03:08:00.034Z,23.83
2022-12-24T03:10:36.932Z,27.83
2022-12-24T03:13:10.521Z,23.97
2022-12-24T03:15:39.749Z,23.47
2022-12-24T03:18:11.417Z,24.47
2022-12-24T03:20:43.342Z,27.80
2022-12-24T03:23:11.954Z,23.10
2022-12-24T03:25:42.365Z,22.23
2022-12-24T03:28:13.617Z,19.73
2022-12-24T03:30:42.162Z,25.73
2022-12-24T03:33:12.836Z,37.87
2022-12-24T03:35:41.027Z,26.60
2022-12-24T03:38:09.302Z,25.87
2022-12-24T03:40:37.589Z,31.43
2022-12-24T03:43:05.869Z,25.60
2022-12-24T03:45:34.024Z,26.47
2022-12-24T03:48:02.210Z,31.50
2022-12-24T03:50:31.853Z,26.63
2022-12-24T03:53:00.019Z,27.37
2022-12-24T03:55:29.382Z,21.73
2022-12-24T03:57:57.570Z,25.50
2022-12-24T04:00:25.878Z,21.73
2022-12-24T04:02:55.047Z,24.63
2022-12-24T04:05:23.406Z,26.00
2022-12-24T04:07:52.941Z,26.33
2022-12-24T04:10:21.081Z,23.10
2022-12-24T04:12:49.210Z,21.20
2022-12-24T04:15:18.312Z,24.47
2022-12-24T04:17:46.560Z,24.33
2022-12-24T04:20:14.804Z,22.43
2022-12-24T04:22:43.357Z,23.40
2022-12-24T04:25:13.174Z,22.90
2022-12-24T04:27:41.326Z,22.90
2022-12-24T04:30:10.670Z,22.90
2022-12-24T04:32:38.891Z,22.70
2022-12-24T04:35:07.564Z,27.43
2022-12-24T04:37:36.022Z,27.07
2022-12-24T04:40:04.271Z,28.33
2022-12-24T04:42:33.858Z,25.63
2022-12-24T04:45:01.972Z,24.27
2022-12-24T04:47:30.488Z,23.67
2022-12-24T04:49:59.327Z,24.83
2022-12-24T04:52:27.454Z,26.00
2022-12-24T04:54:55.624Z,27.17
2022-12-24T04:57:23.732Z,27.27
2022-12-24T04:59:53.185Z,30.07
2022-12-24T05:02:21.617Z,26.60
2022-12-24T05:04:49.704Z,29.27
2022-12-24T05:07:17.852Z,28.63
2022-12-24T05:09:45.964Z,31.77
2022-12-24T05:12:14.110Z,28.67
2022-12-24T05:14:42.352Z,25.17
2022-12-24T05:17:11.931Z,27.93
2022-12-24T05:19:40.124Z,26.87
2022-12-24T05:22:25.622Z,28.30
2022-12-24T05:25:11.142Z,27.60
2022-12-24T05:27:39.326Z,32.23
2022-12-24T05:30:08.917Z,36.20
2022-12-24T05:32:38.455Z,38.63
2022-12-24T05:35:07.036Z,30.00
2022-12-24T05:37:35.158Z,29.50
2022-12-24T05:40:03.583Z,29.97
2022-12-24T05:42:31.686Z,31.60
2022-12-24T05:44:59.919Z,29.90
2022-12-24T05:47:28.212Z,26.50
2022-12-24T05:49:57.872Z,26.97
2022-12-24T05:52:25.971Z,24.80
2022-12-24T05:54:54.078Z,27.60
2022-12-24T05:57:22.183Z,28.27
2022-12-24T05:59:50.409Z,30.50
2022-12-24T06:02:18.796Z,31.77
2022-12-24T06:04:47.034Z,32.70
2022-12-24T06:07:16.570Z,33.93
2022-12-24T06:09:44.799Z,41.67
2022-12-24T06:12:12.931Z,35.10
2022-12-24T06:14:41.035Z,36.00
2022-12-24T06:17:09.128Z,35.23
2022-12-24T06:19:37.403Z,34.83
2022-12-24T06:22:05.543Z,34.30
2022-12-24T06:24:35.131Z,31.00
2022-12-24T06:27:03.332Z,33.43
2022-12-24T06:29:31.433Z,32.23
2022-12-24T06:31:59.918Z,39.10
2022-12-24T06:34:28.228Z,37.47
2022-12-24T06:36:56.312Z,45.27
2022-12-24T06:39:24.462Z,41.57
2022-12-24T06:41:54.159Z,44.03
2022-12-24T06:44:22.489Z,41.90
2022-12-24T06:46:50.793Z,38.33
2022-12-24T06:49:19.154Z,42.57
2022-12-24T06:51:47.285Z,42.03
2022-12-24T06:54:15.362Z,47.17
2022-12-24T06:56:43.443Z,46.70
2022-12-24T06:59:13.048Z,52.97
2022-12-24T07:01:41.348Z,78.70
2022-12-24T07:04:13.215Z,49.67
2022-12-24T07:06:46.277Z,66.13
2022-12-24T07:09:15.101Z,42.67
2022-12-24T07:11:43.211Z,38.97
2022-12-24T07:14:12.687Z,44.50
2022-12-24T07:16:40.969Z,46.27
2022-12-24T07:19:09.224Z,55.20
2022-12-24T07:21:37.410Z,37.63
2022-12-24T07:24:05.979Z,35.83
2022-12-24T07:26:34.834Z,39.57
2022-12-24T07:29:03.087Z,32.33
2022-12-24T07:31:32.872Z,31.90
2022-12-24T07:34:01.090Z,31.20
2022-12-24T07:36:29.291Z,31.67
2022-12-24T07:38:57.401Z,28.40
2022-12-24T07:41:25.680Z,23.40
2022-12-24T07:43:53.932Z,22.60
2022-12-24T07:46:22.279Z,25.17
2022-12-24T07:48:51.879Z,20.83
2022-12-24T07:51:20.051Z,24.57
2022-12-24T07:53:48.480Z,22.57
2022-12-24T07:56:16.929Z,24.17
2022-12-24T07:58:45.184Z,23.83
2022-12-24T08:01:13.651Z,18.17
2022-12-24T08:03:42.072Z,19.70
2022-12-24T08:06:12.407Z,24.10
2022-12-24T08:08:40.739Z,22.40
2022-12-24T08:11:09.307Z,19.53
2022-12-24T08:13:37.519Z,21.47
2022-12-24T08:16:06.309Z,20.87
2022-12-24T08:18:34.565Z,20.70
2022-12-24T08:21:02.608Z,19.07
2022-12-24T08:23:32.186Z,20.80
2022-12-24T08:26:00.360Z,17.57
2022-12-24T08:28:28.567Z,20.10
2022-12-24T08:30:56.635Z,24.50
2022-12-24T08:33:24.798Z,19.13
2022-12-24T08:35:54.663Z,19.97
2022-12-24T08:38:23.788Z,23.37
2022-12-24T08:40:54.809Z,22.13
2022-12-24T08:43:25.599Z,22.37
2022-12-24T08:45:54.941Z,19.93
2022-12-24T08:48:23.126Z,19.30
2022-12-24T08:50:51.327Z,17.87
2022-12-24T08:53:19.428Z,18.37
2022-12-24T08:55:53.832Z,21.03
2022-12-24T08:58:25.628Z,22.47
2022-12-24T09:00:53.830Z,17.97
2022-12-24T09:03:27.425Z,23.73
2022-12-24T09:05:56.547Z,29.77
2022-12-24T09:08:24.706Z,26.50
2022-12-24T09:10:52.762Z,27.90
2022-12-24T09:13:20.988Z,26.37
2022-12-24T09:15:56.303Z,21.90
2022-12-24T09:18:24.659Z,21.07
2022-12-24T09:20:57.200Z,20.80
2022-12-24T09:23:25.784Z,23.73
2022-12-24T09:25:54.038Z,24.33
2022-12-24T09:28:22.655Z,28.03
2022-12-24T09:31:03.755Z,22.20
2022-12-24T09:33:33.458Z,27.33
2022-12-24T09:36:01.634Z,29.10
2022-12-24T09:38:30.718Z,27.07
2022-12-24T09:41:05.423Z,25.90
2022-12-24T09:43:38.612Z,28.60
2022-12-24T09:46:14.740Z,27.17
2022-12-24T09:48:46.507Z,23.60
2022-12-24T09:51:22.732Z,24.70
2022-12-24T09:53:55.194Z,37.23
2022-12-24T09:56:27.180Z,35.27
2022-12-24T09:59:00.146Z,38.70
2022-12-24T10:01:31.552Z,19.60
2022-12-24T10:04:02.957Z,21.53
2022-12-24T10:06:39.361Z,19.93
2022-12-24T10:09:18.221Z,26.63
2022-12-24T10:11:55.376Z,17.97
2022-12-24T10:14:31.707Z,22.57
2022-12-24T10:17:18.693Z,20.30
2022-12-24T10:19:53.798Z,27.10
2022-12-24T10:22:29.870Z,20.90
2022-12-24T10:25:05.562Z,18.30
2022-12-24T10:27:39.873Z,25.30
2022-12-24T10:30:17.428Z,22.83
2022-12-24T10:32:49.037Z,21.57
2022-12-24T10:35:25.075Z,24.07
2022-12-24T10:37:53.965Z,21.10
2022-12-24T10:40:31.791Z,22.63
2022-12-24T10:43:00.185Z,23.97
2022-12-24T10:45:37.844Z,21.70
2022-12-24T10:48:15.825Z,26.00
2022-12-24T10:50:53.252Z,22.87
2022-12-24T10:53:28.542Z,22.20
2022-12-24T10:56:04.887Z,28.00
2022-12-24T10:58:33.236Z,23.90
2022-12-24T11:01:01.567Z,35.73
2022-12-24T11:03:36.332Z,25.23
2022-12-24T11:06:10.999Z,20.70
2022-12-24T11:08:42.004Z,20.97
2022-12-24T11:11:12.820Z,19.97
2022-12-24T11:13:44.805Z,19.40
2022-12-24T11:16:20.066Z,28.40
2022-12-24T11:18:52.491Z,21.20
2022-12-24T11:21:25.969Z,26.73
2022-12-24T11:23:57.114Z,20.00
2022-12-24T11:26:28.732Z,22.33
2022-12-24T11:29:16.647Z,25.87
2022-12-24T11:31:45.929Z,21.70
2022-12-24T11:34:26.258Z,26.77
2022-12-24T11:36:56.120Z,24.70
2022-12-24T11:39:27.321Z,20.87
2022-12-24T11:41:55.875Z,19.40
2022-12-24T11:44:28.081Z,19.63
2022-12-24T11:46:57.860Z,19.83
2022-12-24T11:49:29.477Z,22.47
2022-12-24T11:52:23.600Z,18.90
2022-12-24T11:55:18.261Z,20.30
2022-12-24T11:58:00.616Z,17.90
2022-12-24T12:00:28.811Z,19.80
2022-12-24T12:03:01.101Z,23.97
2022-12-24T12:05:34.597Z,25.43
2022-12-24T12:08:12.178Z,21.30
2022-12-24T12:10:44.270Z,15.00
2022-12-24T12:13:16.301Z,18.80
2022-12-24T12:15:49.669Z,18.03
2022-12-24T12:18:22.267Z,17.80
2022-12-24T12:20:55.429Z,17.57
2022-12-24T12:23:29.316Z,20.83
2022-12-24T12:26:01.457Z,23.63
2022-12-24T12:28:36.767Z,35.43
2022-12-24T12:31:24.886Z,30.23
2022-12-24T12:33:59.127Z,20.70
2022-12-24T12:36:33.827Z,20.77
2022-12-24T12:39:02.011Z,15.30
2022-12-24T12:41:47.212Z,17.67
2022-12-24T12:44:41.872Z,19.10
2022-12-24T12:47:38.841Z,9.50
2022-12-24T12:50:15.360Z,11.70
2022-12-24T12:52:59.336Z,7.47
2022-12-24T12:55:37.611Z,6.97
2022-12-24T12:58:12.277Z,7.43
2022-12-24T13:00:45.575Z,7.30
2022-12-24T13:03:45.573Z,8.23
2022-12-24T13:06:41.792Z,12.40
2022-12-24T13:09:43.563Z,7.47
2022-12-24T13:12:33.329Z,10.03
2022-12-24T13:15:25.571Z,7.60
2022-12-24T13:18:26.042Z,10.77
2022-12-24T13:20:54.793Z,7.17
2022-12-24T13:23:25.027Z,7.17
2022-12-24T13:25:56.322Z,7.73
2022-12-24T13:28:37.228Z,12.63
2022-12-24T13:31:30.129Z,10.30
2022-12-24T13:34:03.887Z,11.67
2022-12-24T13:37:07.127Z,10.20
2022-12-24T13:40:16.489Z,8.80
2022-12-24T13:43:07.284Z,16.73
2022-12-24T13:45:48.218Z,18.50
2022-12-24T13:48:34.288Z,10.27
2022-12-24T13:51:19.044Z,11.43
2022-12-24T13:53:49.816Z,12.90
2022-12-24T13:56:28.217Z,11.27
2022-12-24T13:59:13.893Z,10.33
2022-12-24T14:01:44.463Z,12.90
2022-12-24T14:04:25.759Z,14.17
2022-12-24T14:06:56.072Z,18.20
2022-12-24T14:09:26.516Z,16.80
2022-12-24T14:12:20.545Z,19.37
2022-12-24T14:14:52.618Z,17.47
2022-12-24T14:17:24.783Z,26.90
2022-12-24T14:19:55.626Z,16.53
2022-12-24T14:22:32.130Z,23.10
2022-12-24T14:25:03.222Z,21.13
2022-12-24T14:27:35.639Z,23.00
2022-12-24T14:30:08.801Z,26.03
2022-12-24T14:32:38.876Z,36.83
2022-12-24T14:35:09.507Z,28.50
2022-12-24T14:37:38.473Z,23.10
2022-12-24T14:40:08.931Z,21.23
2022-12-24T14:42:45.136Z,20.17
2022-12-24T14:45:27.615Z,28.07
2022-12-24T14:48:05.349Z,23.20
2022-12-24T14:50:56.389Z,21.13
2022-12-24T14:53:49.462Z,16.70
2022-12-24T14:56:20.156Z,11.80
2022-12-24T14:58:48.838Z,9.97
2022-12-24T15:01:25.124Z,26.50
2022-12-24T15:04:03.829Z,13.07
2022-12-24T15:06:34.755Z,27.33
2022-12-24T15:09:02.971Z,17.80
2022-12-24T15:11:32.011Z,22.70
2022-12-24T15:14:01.716Z,18.87
2022-12-24T15:16:34.206Z,28.53
2022-12-24T15:19:06.086Z,19.37
2022-12-24T15:21:37.767Z,27.40
2022-12-24T15:24:06.407Z,22.23
2022-12-24T15:26:37.086Z,21.47
2022-12-24T15:29:22.388Z,39.37
2022-12-24T15:31:56.613Z,25.00
2022-12-24T15:34:30.892Z,22.73
2022-12-24T15:37:06.025Z,18.80
2022-12-24T15:39:34.649Z,22.60
2022-12-24T15:42:15.064Z,18.33
2022-12-24T15:44:48.945Z,19.30
2022-12-24T15:47:22.382Z,12.20
2022-12-24T15:49:53.473Z,12.10
2022-12-24T15:52:25.095Z,15.40
2022-12-24T15:54:58.155Z,14.17
2022-12-24T15:57:31.356Z,10.70
2022-12-24T16:00:01.074Z,10.87
2022-12-24T16:02:41.498Z,9.63
2022-12-24T16:05:31.341Z,8.03
2022-12-24T16:08:17.798Z,12.43
2022-12-24T16:10:48.046Z,10.30
2022-12-24T16:13:20.381Z,9.83
2022-12-24T16:15:52.259Z,12.43
2022-12-24T16:18:26.196Z,12.17
2022-12-24T16:20:57.874Z,11.70
2022-12-24T16:23:28.300Z,16.37
2022-12-24T16:25:56.548Z,13.40
2022-12-24T16:28:24.650Z,11.50
2022-12-24T16:30:55.743Z,13.37
2022-12-24T16:33:25.363Z,18.00
2022-12-24T16:35:53.650Z,11.57
2022-12-24T16:38:21.835Z,12.40
2022-12-24T16:40:50.029Z,6.80
2022-12-24T16:43:35.463Z,8.23
2022-12-24T16:46:06.256Z,9.90
2022-12-24T16:48:39.027Z,8.10
2022-12-24T16:51:07.303Z,8.60
2022-12-24T16:53:35.459Z,6.10
2022-12-24T16:56:04.026Z,7.53
2022-12-24T16:58:33.114Z,12.37
2022-12-24T17:01:08.744Z,10.70
2022-12-24T17:03:38.532Z,8.20
2022-12-24T17:06:07.716Z,20.40
2022-12-24T17:08:36.553Z,11.30
2022-12-24T17:11:04.829Z,10.50
2022-12-24T17:13:33.032Z,10.20
2022-12-24T17:16:02.455Z,12.67
2022-12-24T17:18:30.570Z,9.63
2022-12-24T17:21:01.507Z,10.80
2022-12-24T17:23:29.783Z,11.23
2022-12-24T17:25:58.183Z,7.27
2022-12-24T17:28:27.084Z,9.50
2022-12-24T17:30:55.385Z,11.07
2022-12-24T17:33:23.599Z,9.73
2022-12-24T17:35:52.364Z,11.20
2022-12-24T17:38:21.984Z,15.90
2022-12-24T17:40:50.094Z,10.13
2022-12-24T17:43:18.289Z,10.27
2022-12-24T17:45:46.490Z,14.13
2022-12-24T17:48:14.903Z,18.60
2022-12-24T17:50:43.053Z,16.07
2022-12-24T17:53:11.457Z,16.03
2022-12-24T17:55:44.087Z,13.70
2022-12-24T17:58:14.241Z,12.17
2022-12-24T18:00:43.063Z,15.80
2022-12-24T18:03:14.415Z,12.53
2022-12-24T18:05:42.650Z,17.77
2022-12-24T18:08:11.185Z,18.50
2022-12-24T18:10:39.340Z,17.97
2022-12-24T18:13:12.659Z,19.60
2022-12-24T18:15:45.556Z,17.10
2022-12-24T18:18:13.664Z,17.73
2022-12-24T18:20:46.518Z,16.97
2022-12-24T18:23:15.398Z,19.13
2022-12-24T18:25:43.527Z,20.33
2022-12-24T18:28:13.210Z,24.90
2022-12-24T18:30:41.382Z,20.90
2022-12-24T18:33:09.571Z,19.87
2022-12-24T18:35:37.724Z,18.00
2022-12-24T18:38:07.064Z,18.70
2022-12-24T18:40:38.080Z,27.73
2022-12-24T18:43:06.203Z,18.93
2022-12-24T18:45:35.697Z,17.10
2022-12-24T18:48:03.963Z,19.90
2022-12-24T18:50:32.077Z,12.80
2022-12-24T18:53:00.245Z,14.20
2022-12-24T18:55:28.411Z,14.47
2022-12-24T18:57:56.599Z,14.30
2022-12-24T19:00:24.915Z,10.83
2022-12-24T19:02:54.622Z,7.80
2022-12-24T19:05:22.928Z,10.20
2022-12-24T19:07:51.231Z,17.10
2022-12-24T19:10:19.555Z,12.30
2022-12-24T19:12:47.621Z,8.03
2022-12-24T19:15:16.337Z,9.20
2022-12-24T19:17:44.861Z,9.37
2022-12-24T19:20:14.721Z,10.73
2022-12-24T19:22:42.970Z,11.17
2022-12-24T19:25:11.398Z,8.07
2022-12-24T19:27:39.725Z,11.33
2022-12-24T19:30:09.053Z,8.93
2022-12-24T19:32:37.165Z,8.30
2022-12-24T19:35:05.728Z,8.50
2022-12-24T19:37:35.389Z,7.87
2022-12-24T19:40:03.539Z,7.33
2022-12-24T19:42:31.676Z,8.23
2022-12-24T19:44:59.911Z,6.80
2022-12-24T19:47:28.392Z,6.97
2022-12-24T19:49:56.702Z,7.60
2022-12-24T19:52:24.915Z,7.03
2022-12-24T19:54:54.447Z,7.87
2022-12-24T19:57:22.660Z,6.50
2022-12-24T19:59:50.943Z,8.73
2022-12-24T20:02:19.486Z,7.37
2022-12-24T20:04:47.833Z,9.03
2022-12-24T20:07:16.070Z,8.47
2022-12-24T20:09:44.509Z,9.40
2022-12-24T20:12:14.078Z,7.77
2022-12-24T20:14:42.429Z,7.43
2022-12-24T20:17:10.683Z,8.47
2022-12-24T20:19:40.240Z,8.37
2022-12-24T20:22:08.423Z,7.03
2022-12-24T20:24:36.469Z,8.90
2022-12-24T20:27:04.949Z,12.93
2022-12-24T20:29:34.453Z,8.50
2022-12-24T20:32:02.757Z,7.90
2022-12-24T20:34:30.942Z,8.17
2022-12-24T20:36:59.062Z,8.27
2022-12-24T20:39:27.149Z,8.23
2022-12-24T20:41:55.433Z,7.17
2022-12-24T20:44:23.530Z,14.33
2022-12-24T20:46:53.023Z,8.70
2022-12-24T20:49:21.185Z,8.90
2022-12-24T20:51:49.378Z,12.80
2022-12-24T20:54:17.517Z,9.90
2022-12-24T20:56:45.615Z,8.50
2022-12-24T20:59:26.554Z,7.00
2022-12-24T21:01:56.251Z,7.33
2022-12-24T21:04:24.489Z,9.60
2022-12-24T21:06:52.587Z,8.00
2022-12-24T21:09:20.744Z,8.13
2022-12-24T21:12:06.900Z,7.00
2022-12-24T21:14:35.059Z,8.77
2022-12-24T21:17:04.811Z,6.43
2022-12-24T21:19:33.126Z,8.43
2022-12-24T21:22:01.245Z,19.13
2022-12-24T21:24:29.413Z,7.90
2022-12-24T21:27:00.059Z,9.53
2022-12-24T21:29:28.248Z,7.87
2022-12-24T21:31:56.403Z,7.47
2022-12-24T21:34:25.867Z,9.40
2022-12-24T21:36:54.158Z,9.10
2022-12-24T21:39:22.299Z,9.07
2022-12-24T21:41:50.376Z,10.10
2022-12-24T21:44:18.903Z,8.20
2022-12-24T21:46:47.044Z,9.83
2022-12-24T21:49:33.802Z,8.13
2022-12-24T21:52:03.297Z,7.90
2022-12-24T21:54:31.526Z,7.97
2022-12-24T21:57:24.810Z,8.50
2022-12-24T21:59:54.171Z,6.77
2022-12-24T22:02:26.763Z,10.50
2022-12-24T22:04:55.961Z,14.07
2022-12-24T22:07:45.403Z,9.20
2022-12-24T22:10:31.832Z,8.33
2022-12-24T22:13:00.569Z,9.50
2022-12-24T22:15:28.717Z,12.57
2022-12-24T22:17:57.011Z,9.60
2022-12-24T22:20:25.175Z,10.43
2022-12-24T22:22:54.934Z,8.53
2022-12-24T22:25:23.052Z,10.97
2022-12-24T22:27:51.216Z,7.53
2022-12-24T22:30:19.426Z,11.87
2022-12-24T22:32:47.621Z,6.97
2022-12-24T22:35:15.945Z,12.30
2022-12-24T22:37:44.120Z,7.93
2022-12-24T22:40:14.824Z,11.83
2022-12-24T22:42:43.013Z,10.43
2022-12-24T22:45:18.383Z,10.30
2022-12-24T22:47:50.086Z,9.47
2022-12-24T22:50:18.400Z,8.13
2022-12-24T22:52:46.530Z,9.77
2022-12-24T22:55:16.297Z,7.80
2022-12-24T22:57:44.425Z,8.43
2022-12-24T23:00:16.890Z,8.23
2022-12-24T23:02:45.209Z,10.37
2022-12-24T23:05:15.906Z,13.90
2022-12-24T23:07:44.167Z,8.97
2022-12-24T23:10:12.377Z,8.40
2022-12-24T23:12:59.512Z,8.57
2022-12-24T23:15:27.652Z,8.90
2022-12-24T23:17:55.807Z,8.30
2022-12-24T23:20:23.922Z,8.77
2022-12-24T23:22:52.113Z,8.77
2022-12-24T23:25:20.548Z,7.67
2022-12-24T23:27:50.208Z,9.20
2022-12-24T23:30:18.545Z,8.87
2022-12-24T23:32:46.622Z,10.30
2022-12-24T23:35:14.889Z,10.97
2022-12-24T23:37:43.236Z,10.37
2022-12-24T23:40:12.460Z,11.67
2022-12-24T23:42:40.617Z,9.53
2022-12-24T23:45:11.269Z,10.00
2022-12-24T23:47:39.379Z,11.23
2022-12-24T23:50:08.665Z,9.10
2022-12-24T23:52:36.747Z,10.80
2022-12-24T23:55:06.635Z,9.97
2022-12-24T23:57:34.764Z,11.43
